Terminal Aerodrome Forecast
Issued by NWS Cleveland, OH

Home | Current Version | Previous Version | Graphics & Text | Print | Product List | Glossary On
Versions: 1 2 3 4 5 6 7 8 9 10 11 12 13 14 15 16 17 18 19
130
FTUS41 KCLE 210424 AAA
TAFTOL
TAF AMD
KTOL 210424Z 2104/2124 10007KT 6SM -SHRA VCTS OVC060CB
      TEMPO 2105/2109 4SM -TSRA BKN030CB
     FM210900 15008KT 6SM -RA BR OVC025
     FM211500 22012G22KT P6SM BKN035
     FM211900 22013KT P6SM BKN050=

USA.gov is the U.S. government's official web portal to all federal, state and local government web resources and services.